TimeMDT,TemperatureF,Dew PointF,Humidity,Sea Level PressureIn,VisibilityMPH,Wind Direction,Wind SpeedMPH,Gust SpeedMPH,PrecipitationIn,Events,Conditions,WindDirDegrees,DateUTC
12:53 AM,43.0,35.1,74,30.00,10.0,WNW,5.8,-,N/A,,Mostly Cloudy,300,2011-10-21 06:53:00
1:53 AM,45.0,35.1,68,30.02,10.0,West,6.9,-,N/A,,Mostly Cloudy,280,2011-10-21 07:53:00
2:53 AM,46.0,35.1,66,30.03,10.0,WSW,4.6,-,N/A,,Clear,250,2011-10-21 08:53:00
3:53 AM,44.1,36.0,73,30.03,10.0,Calm,Calm,-,N/A,,Mostly Cloudy,0,2011-10-21 09:53:00
4:53 AM,46.0,37.0,71,30.05,10.0,Calm,Calm,-,N/A,,Overcast,0,2011-10-21 10:53:00
5:53 AM,44.1,37.9,79,30.07,10.0,Calm,Calm,-,0.00,,Mostly Cloudy,0,2011-10-21 11:53:00
6:53 AM,44.1,37.9,79,30.08,10.0,SW,5.8,-,N/A,,Mostly Cloudy,220,2011-10-21 12:53:00
7:53 AM,44.1,37.9,79,30.10,10.0,West,5.8,-,N/A,,Scattered Clouds,280,2011-10-21 13:53:00
8:53 AM,46.9,37.9,71,30.12,10.0,WNW,6.9,-,N/A,,Scattered Clouds,300,2011-10-21 14:53:00
9:53 AM,50.0,39.9,68,30.14,10.0,Calm,Calm,-,N/A,,Mostly Cloudy,0,2011-10-21 15:53:00
10:53 AM,53.1,42.1,66,30.14,10.0,SSW,6.9,-,N/A,,Clear,210,2011-10-21 16:53:00
11:53 AM,57.9,37.9,47,30.13,10.0,West,10.4,-,N/A,,Scattered Clouds,270,2011-10-21 17:53:00
12:53 PM,61.0,37.0,41,30.12,10.0,West,9.2,-,N/A,,Clear,260,2011-10-21 18:53:00
1:53 PM,63.0,36.0,37,30.10,10.0,WNW,11.5,-,N/A,,Clear,290,2011-10-21 19:53:00
2:53 PM,64.9,32.0,29,30.08,10.0,West,10.4,-,N/A,,Partly Cloudy,270,2011-10-21 20:53:00
3:53 PM,62.1,30.9,31,30.09,10.0,NW,5.8,-,N/A,,Scattered Clouds,310,2011-10-21 21:53:00
4:53 PM,62.1,30.9,31,30.09,10.0,WNW,8.1,-,N/A,,Overcast,300,2011-10-21 22:53:00
5:53 PM,59.0,32.0,36,30.09,10.0,WNW,4.6,-,N/A,,Overcast,300,2011-10-21 23:53:00
6:53 PM,55.9,32.0,40,30.11,10.0,WNW,3.5,-,N/A,,Mostly Cloudy,300,2011-10-22 00:53:00
7:53 PM,54.0,32.0,43,30.11,10.0,WNW,3.5,-,N/A,,Partly Cloudy,300,2011-10-22 01:53:00
8:53 PM,53.1,32.0,45,30.10,10.0,Calm,Calm,-,N/A,,Scattered Clouds,0,2011-10-22 02:53:00
9:53 PM,51.1,33.1,50,30.10,10.0,SW,4.6,-,N/A,,Overcast,230,2011-10-22 03:53:00
10:53 PM,48.0,35.1,61,30.09,10.0,SE,3.5,-,N/A,,Overcast,140,2011-10-22 04:53:00
11:53 PM,48.0,39.0,71,30.07,10.0,SSE,5.8,-,N/A,,Mostly Cloudy,150,2011-10-22 05:53:00